sensor_id;sensor_type;location;lat;lon;timestamp;pressure;altitude;pressure_sealevel;temperature;humidity
73692;BME280;61996;49.910;35.562;2024-01-10T00:00:30;99822.06;;;15.88;37.76
73692;BME280;61996;49.910;35.562;2024-01-10T00:03:34;99808.81;;;15.88;38.02
73692;BME280;61996;49.910;35.562;2024-01-10T00:06:37;99814.34;;;15.85;37.63
73692;BME280;61996;49.910;35.562;2024-01-10T00:09:40;99803.50;;;15.88;37.53
73692;BME280;61996;49.910;35.562;2024-01-10T00:12:42;99797.94;;;15.92;37.89
73692;BME280;61996;49.910;35.562;2024-01-10T00:15:46;99782.03;;;15.92;37.41
73692;BME280;61996;49.910;35.562;2024-01-10T00:18:50;99763.25;;;15.95;37.37
73692;BME280;61996;49.910;35.562;2024-01-10T00:21:53;99742.88;;;15.95;37.35
73692;BME280;61996;49.910;35.562;2024-01-10T00:24:55;99714.53;;;15.96;37.43
73692;BME280;61996;49.910;35.562;2024-01-10T00:27:58;99722.16;;;16.00;37.49
73692;BME280;61996;49.910;35.562;2024-01-10T00:31:01;99745.19;;;16.00;37.48
73692;BME280;61996;49.910;35.562;2024-01-10T00:34:05;99728.91;;;16.04;37.32
73692;BME280;61996;49.910;35.562;2024-01-10T00:37:09;99726.16;;;16.17;37.32
73692;BME280;61996;49.910;35.562;2024-01-10T00:40:13;99717.94;;;16.20;37.10
73692;BME280;61996;49.910;35.562;2024-01-10T00:43:17;99696.00;;;16.07;37.22
73692;BME280;61996;49.910;35.562;2024-01-10T00:46:22;99691.88;;;16.03;37.47
73692;BME280;61996;49.910;35.562;2024-01-10T00:49:27;99675.84;;;16.04;37.76
73692;BME280;61996;49.910;35.562;2024-01-10T00:52:30;99680.31;;;16.04;37.54
73692;BME280;61996;49.910;35.562;2024-01-10T00:55:32;99679.13;;;16.08;37.53
73692;BME280;61996;49.910;35.562;2024-01-10T00:58:35;99662.22;;;15.98;37.36
73692;BME280;61996;49.910;35.562;2024-01-10T01:01:38;99661.97;;;15.89;37.35
73692;BME280;61996;49.910;35.562;2024-01-10T01:04:43;99666.78;;;15.84;37.61
73692;BME280;61996;49.910;35.562;2024-01-10T01:07:45;99665.09;;;15.72;38.01
73692;BME280;61996;49.910;35.562;2024-01-10T01:10:48;99656.53;;;15.69;37.78
73692;BME280;61996;49.910;35.562;2024-01-10T01:13:51;99666.00;;;15.60;37.70
73692;BME280;61996;49.910;35.562;2024-01-10T01:16:54;99661.16;;;15.54;38.04
73692;BME280;61996;49.910;35.562;2024-01-10T01:19:58;99668.59;;;15.49;37.95
73692;BME280;61996;49.910;35.562;2024-01-10T01:23:01;99688.38;;;15.45;38.11
73692;BME280;61996;49.910;35.562;2024-01-10T01:26:04;99683.28;;;15.42;37.59
73692;BME280;61996;49.910;35.562;2024-01-10T01:29:07;99663.03;;;15.41;38.07
73692;BME280;61996;49.910;35.562;2024-01-10T01:32:11;99639.19;;;15.41;37.94
73692;BME280;61996;49.910;35.562;2024-01-10T01:35:15;99640.50;;;15.35;38.33
73692;BME280;61996;49.910;35.562;2024-01-10T01:38:23;99637.25;;;15.31;38.42
73692;BME280;61996;49.910;35.562;2024-01-10T01:41:26;99629.50;;;15.28;38.28
73692;BME280;61996;49.910;35.562;2024-01-10T01:44:29;99627.44;;;15.21;38.55
73692;BME280;61996;49.910;35.562;2024-01-10T01:47:33;99616.25;;;15.17;38.58
73692;BME280;61996;49.910;35.562;2024-01-10T01:50:37;99608.41;;;15.16;38.50
73692;BME280;61996;49.910;35.562;2024-01-10T01:53:40;99611.88;;;15.05;38.54
73692;BME280;61996;49.910;35.562;2024-01-10T01:56:44;99611.63;;;15.08;38.98
73692;BME280;61996;49.910;35.562;2024-01-10T01:59:47;99622.69;;;15.02;38.72
73692;BME280;61996;49.910;35.562;2024-01-10T02:02:50;99621.84;;;15.01;39.19
73692;BME280;61996;49.910;35.562;2024-01-10T02:05:55;99624.97;;;14.95;38.87
73692;BME280;61996;49.910;35.562;2024-01-10T02:08:59;99636.22;;;14.86;39.06
73692;BME280;61996;49.910;35.562;2024-01-10T02:12:02;99623.34;;;14.82;39.20
73692;BME280;61996;49.910;35.562;2024-01-10T02:15:06;99621.75;;;14.79;39.03
73692;BME280;61996;49.910;35.562;2024-01-10T02:18:08;99618.38;;;14.77;39.35
73692;BME280;61996;49.910;35.562;2024-01-10T02:21:15;99621.13;;;14.75;39.22
73692;BME280;61996;49.910;35.562;2024-01-10T02:24:18;99618.81;;;14.71;39.11
73692;BME280;61996;49.910;35.562;2024-01-10T02:27:22;99607.63;;;14.67;39.40
73692;BME280;61996;49.910;35.562;2024-01-10T02:30:25;99591.34;;;14.61;39.44
73692;BME280;61996;49.910;35.562;2024-01-10T02:33:28;99573.22;;;14.67;39.28
73692;BME280;61996;49.910;35.562;2024-01-10T02:36:31;99580.91;;;14.70;38.52
73692;BME280;61996;49.910;35.562;2024-01-10T02:39:33;99563.63;;;14.77;38.29
73692;BME280;61996;49.910;35.562;2024-01-10T02:42:39;99571.09;;;14.84;37.92
73692;BME280;61996;49.910;35.562;2024-01-10T02:45:42;99565.56;;;14.87;38.14
73692;BME280;61996;49.910;35.562;2024-01-10T02:48:44;99558.75;;;14.95;38.05
73692;BME280;61996;49.910;35.562;2024-01-10T02:51:49;99554.44;;;15.05;38.03
73692;BME280;61996;49.910;35.562;2024-01-10T02:54:51;99557.22;;;15.15;37.88
73692;BME280;61996;49.910;35.562;2024-01-10T02:57:56;99569.78;;;15.24;37.59
73692;BME280;61996;49.910;35.562;2024-01-10T03:00:59;99553.66;;;15.27;37.81
73692;BME280;61996;49.910;35.562;2024-01-10T03:04:03;99559.44;;;15.32;37.62
73692;BME280;61996;49.910;35.562;2024-01-10T03:07:05;99547.41;;;15.40;37.80
73692;BME280;61996;49.910;35.562;2024-01-10T03:10:08;99545.72;;;15.39;37.45
73692;BME280;61996;49.910;35.562;2024-01-10T03:13:13;99539.22;;;15.43;37.35
73692;BME280;61996;49.910;35.562;2024-01-10T03:16:15;99537.06;;;15.48;37.63
73692;BME280;61996;49.910;35.562;2024-01-10T03:19:19;99535.97;;;15.50;37.11
73692;BME280;61996;49.910;35.562;2024-01-10T03:22:21;99526.94;;;15.53;37.40
73692;BME280;61996;49.910;35.562;2024-01-10T03:25:24;99527.78;;;15.53;37.23
73692;BME280;61996;49.910;35.562;2024-01-10T03:28:28;99521.53;;;15.54;37.25
73692;BME280;61996;49.910;35.562;2024-01-10T03:31:32;99523.91;;;15.57;37.33
73692;BME280;61996;49.910;35.562;2024-01-10T03:34:34;99523.81;;;15.59;37.41
73692;BME280;61996;49.910;35.562;2024-01-10T03:37:37;99526.34;;;15.60;37.10
73692;BME280;61996;49.910;35.562;2024-01-10T03:40:40;99525.28;;;15.63;37.15
73692;BME280;61996;49.910;35.562;2024-01-10T03:43:45;99534.06;;;15.63;37.00
73692;BME280;61996;49.910;35.562;2024-01-10T03:46:51;99524.09;;;15.67;36.97
73692;BME280;61996;49.910;35.562;2024-01-10T03:49:57;99517.69;;;15.70;37.08
73692;BME280;61996;49.910;35.562;2024-01-10T03:53:00;99518.53;;;15.70;37.34
73692;BME280;61996;49.910;35.562;2024-01-10T03:56:03;99526.38;;;15.72;37.13
73692;BME280;61996;49.910;35.562;2024-01-10T03:59:08;99526.00;;;15.76;37.40
73692;BME280;61996;49.910;35.562;2024-01-10T04:02:11;99522.63;;;15.74;36.91
73692;BME280;61996;49.910;35.562;2024-01-10T04:05:14;99524.69;;;15.82;37.17
73692;BME280;61996;49.910;35.562;2024-01-10T04:08:17;99531.91;;;15.80;37.09
73692;BME280;61996;49.910;35.562;2024-01-10T04:11:19;99521.19;;;15.81;36.96
73692;BME280;61996;49.910;35.562;2024-01-10T04:14:24;99524.81;;;15.80;37.21
73692;BME280;61996;49.910;35.562;2024-01-10T04:17:27;99506.72;;;15.85;37.05
73692;BME280;61996;49.910;35.562;2024-01-10T04:20:30;99520.94;;;15.84;37.21
73692;BME280;61996;49.910;35.562;2024-01-10T04:23:33;99524.56;;;15.83;36.99
73692;BME280;61996;49.910;35.562;2024-01-10T04:26:36;99510.09;;;15.87;36.78
73692;BME280;61996;49.910;35.562;2024-01-10T04:29:40;99517.91;;;15.89;36.92
73692;BME280;61996;49.910;35.562;2024-01-10T04:32:43;99510.09;;;15.87;37.23
73692;BME280;61996;49.910;35.562;2024-01-10T04:35:46;99502.00;;;15.89;36.90
73692;BME280;61996;49.910;35.562;2024-01-10T04:38:48;99514.28;;;15.90;36.90
73692;BME280;61996;49.910;35.562;2024-01-10T04:41:51;99515.97;;;15.91;36.70
73692;BME280;61996;49.910;35.562;2024-01-10T04:44:56;99511.16;;;15.96;36.93
73692;BME280;61996;49.910;35.562;2024-01-10T04:47:58;99516.34;;;15.98;36.83
73692;BME280;61996;49.910;35.562;2024-01-10T04:51:04;99515.50;;;15.97;36.79
73692;BME280;61996;49.910;35.562;2024-01-10T04:54:07;99508.50;;;15.96;36.79
73692;BME280;61996;49.910;35.562;2024-01-10T04:57:10;99509.34;;;15.97;36.74
73692;BME280;61996;49.910;35.562;2024-01-10T05:00:15;99509.69;;;15.92;36.74
73692;BME280;61996;49.910;35.562;2024-01-10T05:03:17;99505.63;;;15.77;37.18
73692;BME280;61996;49.910;35.562;2024-01-10T05:06:20;99504.69;;;15.67;37.25
73692;BME280;61996;49.910;35.562;2024-01-10T05:09:23;99496.81;;;15.54;37.65
73692;BME280;61996;49.910;35.562;2024-01-10T05:12:26;99497.91;;;15.51;37.68
73692;BME280;61996;49.910;35.562;2024-01-10T05:15:30;99504.41;;;15.47;37.97
73692;BME280;61996;49.910;35.562;2024-01-10T05:18:33;99508.47;;;15.29;38.27
73692;BME280;61996;49.910;35.562;2024-01-10T05:21:36;99510.03;;;15.20;38.47
73692;BME280;61996;49.910;35.562;2024-01-10T05:24:39;99506.69;;;15.18;38.26
73692;BME280;61996;49.910;35.562;2024-01-10T05:27:42;99505.09;;;15.16;38.33
73692;BME280;61996;49.910;35.562;2024-01-10T05:30:46;99494.88;;;15.11;38.32
73692;BME280;61996;49.910;35.562;2024-01-10T05:33:49;99497.03;;;15.06;38.47
73692;BME280;61996;49.910;35.562;2024-01-10T05:36:52;99506.16;;;15.02;38.70
73692;BME280;61996;49.910;35.562;2024-01-10T05:39:55;99508.31;;;14.97;38.57
73692;BME280;61996;49.910;35.562;2024-01-10T05:42:58;99512.28;;;14.91;38.92
73692;BME280;61996;49.910;35.562;2024-01-10T05:46:03;99509.97;;;14.87;38.75
73692;BME280;61996;49.910;35.562;2024-01-10T05:49:06;99512.88;;;14.84;38.93
73692;BME280;61996;49.910;35.562;2024-01-10T05:52:09;99502.50;;;14.80;38.96
73692;BME280;61996;49.910;35.562;2024-01-10T05:55:13;99510.78;;;14.76;39.09
73692;BME280;61996;49.910;35.562;2024-01-10T05:58:16;99507.41;;;14.74;39.02
73692;BME280;61996;49.910;35.562;2024-01-10T06:01:20;99516.53;;;14.70;39.12
73692;BME280;61996;49.910;35.562;2024-01-10T06:04:23;99514.22;;;14.65;39.12
73692;BME280;61996;49.910;35.562;2024-01-10T06:07:26;99520.50;;;14.64;38.96
73692;BME280;61996;49.910;35.562;2024-01-10T06:10:29;99520.94;;;14.58;39.16
73692;BME280;61996;49.910;35.562;2024-01-10T06:13:35;99522.03;;;14.56;39.28
73692;BME280;61996;49.910;35.562;2024-01-10T06:16:55;99522.59;;;14.48;39.16
73692;BME280;61996;49.910;35.562;2024-01-10T06:20:01;99507.13;;;14.42;39.50
73692;BME280;61996;49.910;35.562;2024-01-10T06:23:05;99509.16;;;14.38;39.67
73692;BME280;61996;49.910;35.562;2024-01-10T06:26:08;99510.97;;;14.38;39.60
73692;BME280;61996;49.910;35.562;2024-01-10T06:29:12;99505.19;;;14.33;39.69
73692;BME280;61996;49.910;35.562;2024-01-10T06:32:16;99508.28;;;14.26;39.46
73692;BME280;61996;49.910;35.562;2024-01-10T06:35:19;99509.56;;;14.21;39.52
73692;BME280;61996;49.910;35.562;2024-01-10T06:38:22;99511.56;;;14.17;39.57
73692;BME280;61996;49.910;35.562;2024-01-10T06:41:25;99513.16;;;14.20;39.60
73692;BME280;61996;49.910;35.562;2024-01-10T06:44:29;99523.34;;;14.13;39.74
73692;BME280;61996;49.910;35.562;2024-01-10T06:47:33;99524.63;;;14.08;39.96
73692;BME280;61996;49.910;35.562;2024-01-10T06:50:37;99528.13;;;14.08;39.87
73692;BME280;61996;49.910;35.562;2024-01-10T06:53:40;99528.78;;;13.99;39.92
73692;BME280;61996;49.910;35.562;2024-01-10T06:56:43;99523.50;;;13.99;39.81
73692;BME280;61996;49.910;35.562;2024-01-10T06:59:48;99534.06;;;13.99;40.00
73692;BME280;61996;49.910;35.562;2024-01-10T07:02:52;99534.28;;;13.96;39.77
73692;BME280;61996;49.910;35.562;2024-01-10T07:05:55;99536.19;;;13.94;39.82
73692;BME280;61996;49.910;35.562;2024-01-10T07:08:58;99534.72;;;13.90;40.12
73692;BME280;61996;49.910;35.562;2024-01-10T07:12:01;99525.09;;;13.89;39.87
73692;BME280;61996;49.910;35.562;2024-01-10T07:15:06;99525.94;;;13.89;39.80
73692;BME280;61996;49.910;35.562;2024-01-10T07:18:10;99514.41;;;13.90;40.12
73692;BME280;61996;49.910;35.562;2024-01-10T07:21:13;99511.34;;;13.84;39.68
73692;BME280;61996;49.910;35.562;2024-01-10T07:24:16;99513.38;;;13.80;40.34
73692;BME280;61996;49.910;35.562;2024-01-10T07:27:19;99515.06;;;13.81;39.92
73692;BME280;61996;49.910;35.562;2024-01-10T07:30:22;99519.59;;;13.92;39.70
73692;BME280;61996;49.910;35.562;2024-01-10T07:33:26;99510.28;;;13.99;39.40
73692;BME280;61996;49.910;35.562;2024-01-10T07:36:29;99514.91;;;14.08;39.09
73692;BME280;61996;49.910;35.562;2024-01-10T07:39:35;99523.56;;;14.10;39.15
73692;BME280;61996;49.910;35.562;2024-01-10T07:42:37;99514.97;;;14.19;38.88
73692;BME280;61996;49.910;35.562;2024-01-10T07:45:41;99516.53;;;14.22;38.92
73692;BME280;61996;49.910;35.562;2024-01-10T07:48:45;99521.66;;;14.36;38.66
73692;BME280;61996;49.910;35.562;2024-01-10T07:51:48;99534.31;;;14.44;38.45
73692;BME280;61996;49.910;35.562;2024-01-10T07:54:51;99523.94;;;14.53;38.38
73692;BME280;61996;49.910;35.562;2024-01-10T07:57:53;99520.22;;;14.56;38.43
73692;BME280;61996;49.910;35.562;2024-01-10T08:00:56;99517.84;;;14.64;38.48
73692;BME280;61996;49.910;35.562;2024-01-10T08:04:00;99519.91;;;14.72;38.11
73692;BME280;61996;49.910;35.562;2024-01-10T08:07:03;99514.50;;;14.73;38.15
73692;BME280;61996;49.910;35.562;2024-01-10T08:10:07;99524.50;;;14.81;38.18
73692;BME280;61996;49.910;35.562;2024-01-10T08:13:11;99521.53;;;14.86;37.89
73692;BME280;61996;49.910;35.562;2024-01-10T08:16:14;99507.31;;;14.87;37.96
73692;BME280;61996;49.910;35.562;2024-01-10T08:19:18;99512.41;;;14.90;38.01
73692;BME280;61996;49.910;35.562;2024-01-10T08:22:22;99508.53;;;14.94;37.92
73692;BME280;61996;49.910;35.562;2024-01-10T08:25:29;99514.59;;;14.96;37.86
73692;BME280;61996;49.910;35.562;2024-01-10T08:28:31;99518.56;;;15.01;37.83
73692;BME280;61996;49.910;35.562;2024-01-10T08:31:34;99518.66;;;15.00;37.79
73692;BME280;61996;49.910;35.562;2024-01-10T08:34:39;99513.16;;;15.03;37.75
73692;BME280;61996;49.910;35.562;2024-01-10T08:37:42;99515.69;;;15.04;37.97
73692;BME280;61996;49.910;35.562;2024-01-10T08:40:46;99512.06;;;15.05;37.95
73692;BME280;61996;49.910;35.562;2024-01-10T08:43:49;99522.19;;;15.12;37.78
73692;BME280;61996;49.910;35.562;2024-01-10T08:46:53;99516.91;;;15.12;37.65
73692;BME280;61996;49.910;35.562;2024-01-10T08:49:57;99514.97;;;15.14;37.78
73692;BME280;61996;49.910;35.562;2024-01-10T08:53:00;99521.22;;;15.13;37.75
73692;BME280;61996;49.910;35.562;2024-01-10T08:56:05;99529.06;;;15.14;37.69
73692;BME280;61996;49.910;35.562;2024-01-10T08:59:11;99518.47;;;15.14;37.62
73692;BME280;61996;49.910;35.562;2024-01-10T09:02:14;99523.28;;;15.20;37.53
73692;BME280;61996;49.910;35.562;2024-01-10T09:05:19;99521.47;;;15.21;37.64
73692;BME280;61996;49.910;35.562;2024-01-10T09:08:23;99522.94;;;15.25;37.73
73692;BME280;61996;49.910;35.562;2024-01-10T09:11:26;99521.13;;;15.25;37.49
73692;BME280;61996;49.910;35.562;2024-01-10T09:14:29;99520.16;;;15.26;37.46
73692;BME280;61996;49.910;35.562;2024-01-10T09:17:32;99514.53;;;15.31;37.56
73692;BME280;61996;49.910;35.562;2024-01-10T09:20:36;99511.03;;;15.30;37.44
73692;BME280;61996;49.910;35.562;2024-01-10T09:23:40;99509.22;;;15.31;37.51
73692;BME280;61996;49.910;35.562;2024-01-10T09:26:43;99508.84;;;15.35;37.47
73692;BME280;61996;49.910;35.562;2024-01-10T09:29:46;99517.53;;;15.38;37.62
73692;BME280;61996;49.910;35.562;2024-01-10T09:32:49;99512.84;;;15.41;37.45
73692;BME280;61996;49.910;35.562;2024-01-10T09:35:53;99514.78;;;15.39;37.29
73692;BME280;61996;49.910;35.562;2024-01-10T09:38:59;99510.44;;;15.38;37.57
73692;BME280;61996;49.910;35.562;2024-01-10T09:42:04;99517.28;;;15.41;37.52
73692;BME280;61996;49.910;35.562;2024-01-10T09:45:08;99531.03;;;15.46;37.31
73692;BME280;61996;49.910;35.562;2024-01-10T09:48:13;99528.38;;;15.46;37.28
73692;BME280;61996;49.910;35.562;2024-01-10T09:51:18;99532.72;;;15.47;37.43
73692;BME280;61996;49.910;35.562;2024-01-10T09:54:21;99530.19;;;15.45;37.68
73692;BME280;61996;49.910;35.562;2024-01-10T09:57:27;99538.03;;;15.47;37.32
73692;BME280;61996;49.910;35.562;2024-01-10T10:00:30;99535.25;;;15.48;37.54
73692;BME280;61996;49.910;35.562;2024-01-10T10:03:36;99525.63;;;15.47;37.59
73692;BME280;61996;49.910;35.562;2024-01-10T10:06:41;99530.66;;;15.50;37.45
73692;BME280;61996;49.910;35.562;2024-01-10T10:09:45;99529.34;;;15.56;37.31
73692;BME280;61996;49.910;35.562;2024-01-10T10:12:48;99524.44;;;15.51;37.45
73692;BME280;61996;49.910;35.562;2024-01-10T10:15:58;99529.34;;;15.56;37.44
73692;BME280;61996;49.910;35.562;2024-01-10T10:19:02;99529.47;;;15.54;37.34
73692;BME280;61996;49.910;35.562;2024-01-10T10:22:08;99534.41;;;15.59;37.70
73692;BME280;61996;49.910;35.562;2024-01-10T10:25:15;99537.78;;;15.61;37.40
73692;BME280;61996;49.910;35.562;2024-01-10T10:28:18;99535.38;;;15.58;37.50
73692;BME280;61996;49.910;35.562;2024-01-10T10:31:32;99537.91;;;15.59;37.45
73692;BME280;61996;49.910;35.562;2024-01-10T10:34:35;99535.13;;;15.61;37.18
73692;BME280;61996;49.910;35.562;2024-01-10T10:37:39;99545.53;;;15.64;37.46
73692;BME280;61996;49.910;35.562;2024-01-10T10:40:42;99552.28;;;15.68;37.33
73692;BME280;61996;49.910;35.562;2024-01-10T10:43:46;99549.88;;;15.65;37.28
73692;BME280;61996;49.910;35.562;2024-01-10T10:46:49;99561.31;;;15.66;37.39
73692;BME280;61996;49.910;35.562;2024-01-10T10:50:12;99547.59;;;15.72;37.36
73692;BME280;61996;49.910;35.562;2024-01-10T10:53:17;99547.56;;;15.83;37.34
73692;BME280;61996;49.910;35.562;2024-01-10T10:56:21;99546.59;;;15.84;37.20
73692;BME280;61996;49.910;35.562;2024-01-10T10:59:26;99552.25;;;15.90;37.62
73692;BME280;61996;49.910;35.562;2024-01-10T11:02:29;99541.31;;;15.84;37.50
73692;BME280;61996;49.910;35.562;2024-01-10T11:05:33;99537.69;;;15.85;37.65
73692;BME280;61996;49.910;35.562;2024-01-10T11:08:40;99536.84;;;16.07;37.46
73692;BME280;61996;49.910;35.562;2024-01-10T11:11:49;99540.94;;;16.00;37.51
73692;BME280;61996;49.910;35.562;2024-01-10T11:15:00;99542.03;;;15.86;37.80
73692;BME280;61996;49.910;35.562;2024-01-10T11:18:18;99533.47;;;15.82;37.94
73692;BME280;61996;49.910;35.562;2024-01-10T11:21:28;99535.16;;;15.83;37.70
73692;BME280;61996;49.910;35.562;2024-01-10T11:24:36;99542.97;;;15.85;37.55
73692;BME280;61996;49.910;35.562;2024-01-10T11:27:40;99544.06;;;15.82;37.72
73692;BME280;61996;49.910;35.562;2024-01-10T11:30:48;99548.91;;;15.88;37.59
73692;BME280;61996;49.910;35.562;2024-01-10T11:33:51;99537.59;;;15.86;37.53
73692;BME280;61996;49.910;35.562;2024-01-10T11:37:09;99539.25;;;15.87;37.54
73692;BME280;61996;49.910;35.562;2024-01-10T11:40:13;99543.84;;;15.85;37.61
73692;BME280;61996;49.910;35.562;2024-01-10T11:43:17;99545.53;;;15.86;37.64
73692;BME280;61996;49.910;35.562;2024-01-10T11:46:20;99548.19;;;15.86;37.42
73692;BME280;61996;49.910;35.562;2024-01-10T11:49:25;99553.38;;;15.88;37.59
73692;BME280;61996;49.910;35.562;2024-01-10T11:52:32;99549.03;;;15.87;37.50
73692;BME280;61996;49.910;35.562;2024-01-10T11:55:49;99556.72;;;15.90;37.34
73692;BME280;61996;49.910;35.562;2024-01-10T11:58:54;99554.06;;;15.90;37.65
73692;BME280;61996;49.910;35.562;2024-01-10T12:01:57;99558.41;;;15.91;37.39
73692;BME280;61996;49.910;35.562;2024-01-10T12:04:59;99572.28;;;15.95;37.33
73692;BME280;61996;49.910;35.562;2024-01-10T12:08:04;99567.22;;;15.92;37.53
73692;BME280;61996;49.910;35.562;2024-01-10T12:11:09;99572.28;;;15.95;37.37
73692;BME280;61996;49.910;35.562;2024-01-10T12:14:11;99574.09;;;15.94;37.49
73692;BME280;61996;49.910;35.562;2024-01-10T12:17:16;99574.44;;;15.89;37.49
73692;BME280;61996;49.910;35.562;2024-01-10T12:20:21;99579.03;;;15.87;37.34
73692;BME280;61996;49.910;35.562;2024-01-10T12:23:24;99580.72;;;15.77;37.63
73692;BME280;61996;49.910;35.562;2024-01-10T12:26:33;99573.00;;;15.74;37.71
73692;BME280;61996;49.910;35.562;2024-01-10T12:29:37;99582.28;;;15.69;37.85
73692;BME280;61996;49.910;35.562;2024-01-10T12:32:40;99581.38;;;15.57;38.11
73692;BME280;61996;49.910;35.562;2024-01-10T12:35:43;99576.69;;;15.49;37.77
73692;BME280;61996;49.910;35.562;2024-01-10T12:38:46;99579.22;;;15.40;38.24
73692;BME280;61996;49.910;35.562;2024-01-10T12:41:50;99570.28;;;15.41;38.56
73692;BME280;61996;49.910;35.562;2024-01-10T12:44:53;99576.25;;;15.67;38.39
73692;BME280;61996;49.910;35.562;2024-01-10T12:47:56;99575.59;;;15.41;38.27
73692;BME280;61996;49.910;35.562;2024-01-10T12:50:59;99582.81;;;15.39;38.45
73692;BME280;61996;49.910;35.562;2024-01-10T12:54:06;99588.81;;;15.29;38.82
73692;BME280;61996;49.910;35.562;2024-01-10T12:57:11;99587.03;;;15.41;38.81
73692;BME280;61996;49.910;35.562;2024-01-10T13:00:13;99593.50;;;15.26;38.83
73692;BME280;61996;49.910;35.562;2024-01-10T13:03:17;99596.28;;;15.24;38.90
73692;BME280;61996;49.910;35.562;2024-01-10T13:06:19;99590.16;;;15.24;38.58
73692;BME280;61996;49.910;35.562;2024-01-10T13:09:24;99598.69;;;15.27;38.56
73692;BME280;61996;49.910;35.562;2024-01-10T13:12:28;99586.22;;;15.52;39.02
73692;BME280;61996;49.910;35.562;2024-01-10T13:15:31;99593.44;;;15.50;38.00
73692;BME280;61996;49.910;35.562;2024-01-10T13:18:34;99594.53;;;15.47;38.31
73692;BME280;61996;49.910;35.562;2024-01-10T13:21:37;99586.25;;;15.63;37.93
73692;BME280;61996;49.910;35.562;2024-01-10T13:24:41;99596.50;;;15.68;38.07
73692;BME280;61996;49.910;35.562;2024-01-10T13:27:46;99600.50;;;15.73;37.97
73692;BME280;61996;49.910;35.562;2024-01-10T13:30:49;99596.75;;;15.76;37.80
73692;BME280;61996;49.910;35.562;2024-01-10T13:33:54;99602.53;;;15.81;37.89
73692;BME280;61996;49.910;35.562;2024-01-10T13:36:57;99605.06;;;15.82;37.76
73692;BME280;61996;49.910;35.562;2024-01-10T13:40:01;99603.63;;;15.89;37.62
73692;BME280;61996;49.910;35.562;2024-01-10T13:43:09;99602.91;;;15.87;37.74
73692;BME280;61996;49.910;35.562;2024-01-10T13:46:12;99616.75;;;15.91;37.59
73692;BME280;61996;49.910;35.562;2024-01-10T13:49:15;99616.75;;;15.91;37.57
73692;BME280;61996;49.910;35.562;2024-01-10T13:52:18;99612.78;;;15.97;37.63
73692;BME280;61996;49.910;35.562;2024-01-10T13:55:20;99627.72;;;15.98;37.38
73692;BME280;61996;49.910;35.562;2024-01-10T13:58:26;99623.25;;;15.98;37.62
73692;BME280;61996;49.910;35.562;2024-01-10T14:01:29;99626.88;;;15.97;37.62
73692;BME280;61996;49.910;35.562;2024-01-10T14:04:32;99631.00;;;16.01;37.63
73692;BME280;61996;49.910;35.562;2024-01-10T14:07:36;99632.81;;;16.01;37.56
73692;BME280;61996;49.910;35.562;2024-01-10T14:10:39;99636.81;;;16.06;37.77
73692;BME280;61996;49.910;35.562;2024-01-10T14:13:46;99635.69;;;16.09;37.66
73692;BME280;61996;49.910;35.562;2024-01-10T14:16:50;99646.31;;;16.09;37.71
73692;BME280;61996;49.910;35.562;2024-01-10T14:19:52;99651.63;;;16.09;37.56
73692;BME280;61996;49.910;35.562;2024-01-10T14:22:55;99648.72;;;16.12;37.49
73692;BME280;61996;49.910;35.562;2024-01-10T14:25:59;99654.16;;;16.10;37.50
73692;BME280;61996;49.910;35.562;2024-01-10T14:29:04;99651.13;;;16.15;37.47
73692;BME280;61996;49.910;35.562;2024-01-10T14:32:07;99646.06;;;16.12;37.54
73692;BME280;61996;49.910;35.562;2024-01-10T14:38:28;99654.75;;;16.25;37.57
73692;BME280;61996;49.910;35.562;2024-01-10T14:41:31;99657.25;;;16.27;37.93
73692;BME280;61996;49.910;35.562;2024-01-10T14:44:36;99659.56;;;16.42;37.59
73692;BME280;61996;49.910;35.562;2024-01-10T14:47:39;99659.56;;;16.42;37.95
73692;BME280;61996;49.910;35.562;2024-01-10T14:50:42;99664.25;;;16.39;37.96
73692;BME280;61996;49.910;35.562;2024-01-10T14:53:45;99661.03;;;16.35;38.21
73692;BME280;61996;49.910;35.562;2024-01-10T14:56:48;99672.47;;;16.36;38.48
73692;BME280;61996;49.910;35.562;2024-01-10T14:59:54;99671.88;;;16.43;37.86
73692;BME280;61996;49.910;35.562;2024-01-10T15:02:57;99670.66;;;16.36;38.09
73692;BME280;61996;49.910;35.562;2024-01-10T15:06:03;99674.28;;;16.35;38.15
73692;BME280;61996;49.910;35.562;2024-01-10T15:09:06;99681.41;;;16.35;38.17
73692;BME280;61996;49.910;35.562;2024-01-10T15:12:11;99686.59;;;16.36;38.09
73692;BME280;61996;49.910;35.562;2024-01-10T15:15:16;99684.06;;;16.35;38.14
73692;BME280;61996;49.910;35.562;2024-01-10T15:18:19;99686.59;;;16.36;38.16
73692;BME280;61996;49.910;35.562;2024-01-10T15:21:22;99687.19;;;16.40;37.74
73692;BME280;61996;49.910;35.562;2024-01-10T15:24:24;99686.34;;;16.39;37.90
73692;BME280;61996;49.910;35.562;2024-01-10T15:27:27;99683.81;;;16.38;37.83
73692;BME280;61996;49.910;35.562;2024-01-10T15:30:32;99680.81;;;16.42;37.98
73692;BME280;61996;49.910;35.562;2024-01-10T15:33:48;99685.59;;;16.60;37.62
73692;BME280;61996;49.910;35.562;2024-01-10T15:36:51;99688.03;;;16.52;37.71
73692;BME280;61996;49.910;35.562;2024-01-10T15:39:54;99682.22;;;16.47;37.85
73692;BME280;61996;49.910;35.562;2024-01-10T15:42:56;99680.53;;;16.45;37.75
73692;BME280;61996;49.910;35.562;2024-01-10T15:46:01;99688.50;;;16.45;37.78
73692;BME280;61996;49.910;35.562;2024-01-10T15:49:04;99688.75;;;16.42;37.84
73692;BME280;61996;49.910;35.562;2024-01-10T15:52:07;99692.47;;;16.40;37.92
73692;BME280;61996;49.910;35.562;2024-01-10T15:55:10;99689.13;;;16.38;38.02
73692;BME280;61996;49.910;35.562;2024-01-10T15:58:13;99694.31;;;16.28;37.97
73692;BME280;61996;49.910;35.562;2024-01-10T16:01:17;99697.22;;;16.14;38.26
73692;BME280;61996;49.910;35.562;2024-01-10T16:04:20;99695.75;;;16.10;38.36